createdAt,value
2018-11-29T00:02:13.735Z,30.43
2018-11-29T00:04:41.908Z,29.80
2018-11-29T00:07:10.065Z,30.17
2018-11-29T00:09:39.246Z,30.03
2018-11-29T00:12:08.017Z,26.13
2018-11-29T00:14:36.784Z,26.77
2018-11-29T00:17:05.366Z,28.17
2018-11-29T00:19:33.530Z,27.83
2018-11-29T00:22:01.708Z,27.77
2018-11-29T00:24:29.852Z,28.73
2018-11-29T00:26:58.024Z,25.53
2018-11-29T00:29:26.405Z,25.70
2018-11-29T00:31:54.574Z,28.37
2018-11-29T00:34:22.777Z,27.90
2018-11-29T00:36:51.282Z,27.67
2018-11-29T00:39:19.677Z,27.27
2018-11-29T00:41:48.013Z,26.10
2018-11-29T00:44:16.342Z,25.37
2018-11-29T00:46:44.689Z,28.23
2018-11-29T00:49:13.029Z,26.50
2018-11-29T00:51:41.379Z,27.50
2018-11-29T00:54:09.719Z,28.60
2018-11-29T00:56:38.052Z,25.67
2018-11-29T00:59:06.393Z,28.67
2018-11-29T01:01:34.726Z,26.03
2018-11-29T01:04:03.038Z,26.87
2018-11-29T01:06:31.357Z,25.50
2018-11-29T01:08:59.693Z,26.03
2018-11-29T01:11:28.027Z,25.63
2018-11-29T01:13:56.344Z,25.97
2018-11-29T01:16:24.655Z,24.77
2018-11-29T01:18:53.003Z,28.23
2018-11-29T01:21:21.306Z,27.80
2018-11-29T01:23:49.807Z,25.63
2018-11-29T01:26:18.164Z,26.13
2018-11-29T01:28:46.602Z,26.73
2018-11-29T01:31:14.905Z,25.70
2018-11-29T01:33:43.249Z,26.43
2018-11-29T01:36:11.545Z,25.87
2018-11-29T01:38:39.867Z,27.90
2018-11-29T01:41:08.162Z,27.07
2018-11-29T01:43:36.485Z,25.43
2018-11-29T01:46:04.784Z,27.67
2018-11-29T01:48:33.098Z,25.37
2018-11-29T01:51:01.409Z,28.20
2018-11-29T01:53:29.710Z,27.23
2018-11-29T01:55:58.013Z,27.93
2018-11-29T01:58:26.353Z,27.20
2018-11-29T02:00:54.661Z,27.27
2018-11-29T02:03:23.014Z,27.63
2018-11-29T02:05:51.318Z,28.77
2018-11-29T02:08:19.693Z,27.50
2018-11-29T02:10:50.078Z,26.97
2018-11-29T02:13:19.388Z,28.83
2018-11-29T02:15:47.823Z,30.17
2018-11-29T02:18:16.200Z,27.00
2018-11-29T02:20:44.559Z,25.67
2018-11-29T02:23:12.977Z,26.63
2018-11-29T02:25:41.322Z,28.83
2018-11-29T02:28:09.641Z,28.20
2018-11-29T02:30:37.959Z,29.63
2018-11-29T02:33:06.353Z,28.93
2018-11-29T02:35:34.708Z,29.13
2018-11-29T02:38:03.514Z,29.60
2018-11-29T02:40:31.887Z,32.40
2018-11-29T02:43:00.212Z,28.87
2018-11-29T02:45:28.527Z,31.00
2018-11-29T02:47:56.909Z,30.83
2018-11-29T02:50:25.227Z,28.27
2018-11-29T02:52:53.566Z,31.83
2018-11-29T02:55:21.875Z,30.77
2018-11-29T02:57:50.211Z,30.53
2018-11-29T03:00:18.916Z,33.43
2018-11-29T03:02:47.718Z,29.27
2018-11-29T03:05:16.694Z,31.63
2018-11-29T03:07:45.050Z,31.90
2018-11-29T03:10:14.182Z,31.47
2018-11-29T03:12:42.995Z,30.23
2018-11-29T03:15:12.328Z,29.73
2018-11-29T03:17:40.774Z,30.27
2018-11-29T03:20:10.349Z,31.27
2018-11-29T03:22:38.758Z,30.90
2018-11-29T03:25:09.155Z,31.73
2018-11-29T03:27:37.517Z,33.27
2018-11-29T03:30:07.879Z,33.57
2018-11-29T03:32:36.237Z,32.20
2018-11-29T03:35:04.713Z,30.13
2018-11-29T03:37:33.046Z,31.83
2018-11-29T03:40:01.436Z,29.53
2018-11-29T03:42:29.741Z,33.03
2018-11-29T03:44:58.081Z,31.97
2018-11-29T03:47:26.388Z,34.20
2018-11-29T03:49:54.693Z,31.13
2018-11-29T03:52:22.998Z,31.13
2018-11-29T03:54:51.338Z,33.20
2018-11-29T03:57:19.649Z,33.03
2018-11-29T03:59:48.015Z,31.37
2018-11-29T04:02:16.381Z,30.77
2018-11-29T04:04:44.851Z,27.87
2018-11-29T04:07:13.281Z,31.20
2018-11-29T04:09:41.780Z,33.27
2018-11-29T04:12:10.086Z,30.37
2018-11-29T04:14:38.402Z,29.80
2018-11-29T04:17:06.772Z,33.57
2018-11-29T04:19:35.091Z,29.83
2018-11-29T04:22:03.405Z,28.87
2018-11-29T04:24:31.739Z,29.63
2018-11-29T04:27:00.048Z,30.37
2018-11-29T04:29:28.358Z,28.47
2018-11-29T04:31:56.661Z,30.63
2018-11-29T04:34:24.987Z,27.83
2018-11-29T04:36:53.300Z,29.03
2018-11-29T04:39:21.610Z,28.17
2018-11-29T04:41:49.920Z,28.97
2018-11-29T04:44:18.238Z,31.23
2018-11-29T04:46:48.307Z,28.50
2018-11-29T04:49:16.693Z,31.27
2018-11-29T04:51:45.044Z,30.07
2018-11-29T04:54:13.476Z,27.27
2018-11-29T04:56:41.875Z,30.60
2018-11-29T04:59:10.321Z,29.63
2018-11-29T05:01:38.697Z,30.73
2018-11-29T05:04:07.287Z,28.77
2018-11-29T05:06:35.585Z,27.97
2018-11-29T05:09:05.272Z,29.00
2018-11-29T05:11:33.565Z,29.40
2018-11-29T05:14:01.910Z,29.50
2018-11-29T05:16:30.242Z,34.00
2018-11-29T05:18:58.569Z,30.63
2018-11-29T05:21:26.869Z,29.73
2018-11-29T05:23:55.234Z,32.23
2018-11-29T05:26:23.579Z,30.07
2018-11-29T05:28:51.951Z,29.80
2018-11-29T05:31:20.265Z,30.47
2018-11-29T05:33:48.594Z,33.10
2018-11-29T05:36:17.017Z,30.60
2018-11-29T05:38:45.370Z,34.30
2018-11-29T05:41:13.898Z,31.77
2018-11-29T05:43:42.393Z,31.77
2018-11-29T05:46:10.800Z,34.07
2018-11-29T05:48:39.243Z,32.67
2018-11-29T05:51:07.764Z,30.80
2018-11-29T05:53:36.051Z,32.17
2018-11-29T05:56:04.399Z,34.43
2018-11-29T05:58:32.805Z,34.10
2018-11-29T06:01:04.395Z,34.60
2018-11-29T06:03:32.793Z,35.93
2018-11-29T06:06:01.287Z,36.30
2018-11-29T06:08:29.647Z,34.17
2018-11-29T06:10:58.104Z,34.90
2018-11-29T06:13:26.507Z,39.33
2018-11-29T06:15:54.934Z,34.13
2018-11-29T06:18:23.250Z,31.87
2018-11-29T06:20:51.555Z,34.87
2018-11-29T06:23:19.848Z,36.37
2018-11-29T06:25:48.486Z,34.30
2018-11-29T06:28:16.808Z,34.17
2018-11-29T06:30:45.148Z,34.13
2018-11-29T06:33:13.684Z,33.33
2018-11-29T06:35:42.135Z,28.03
2018-11-29T06:38:10.679Z,33.77
2018-11-29T06:40:39.111Z,32.23
2018-11-29T06:43:07.408Z,35.13
2018-11-29T06:45:35.725Z,32.83
2018-11-29T06:48:04.052Z,34.00
2018-11-29T06:50:32.386Z,32.57
2018-11-29T06:53:00.822Z,33.20
2018-11-29T06:55:29.152Z,33.67
2018-11-29T06:57:57.547Z,35.83
2018-11-29T07:00:30.997Z,35.70
2018-11-29T07:02:59.366Z,36.13
2018-11-29T07:05:27.688Z,35.43
2018-11-29T07:07:56.015Z,32.20
2018-11-29T07:10:29.793Z,31.73
2018-11-29T07:12:58.113Z,32.07
2018-11-29T07:15:26.463Z,32.30
2018-11-29T07:17:54.904Z,34.10
2018-11-29T07:20:23.225Z,33.87
2018-11-29T07:22:51.497Z,34.70
2018-11-29T07:25:19.865Z,32.90
2018-11-29T07:27:48.138Z,32.80
2018-11-29T07:30:17.423Z,31.77
2018-11-29T07:32:46.054Z,29.17
2018-11-29T07:35:15.242Z,34.07
2018-11-29T07:37:43.580Z,32.40
2018-11-29T07:40:14.520Z,34.50
2018-11-29T07:42:42.724Z,30.13
2018-11-29T07:45:13.426Z,32.00
2018-11-29T07:47:41.668Z,30.60
2018-11-29T07:50:12.954Z,32.70
2018-11-29T07:52:41.307Z,28.90
2018-11-29T07:55:14.753Z,27.60
2018-11-29T07:57:43.291Z,31.50
2018-11-29T08:00:12.557Z,31.00
2018-11-29T08:02:41.105Z,29.80
2018-11-29T08:05:11.710Z,29.80
2018-11-29T08:07:40.901Z,32.30
2018-11-29T08:10:11.336Z,29.30
2018-11-29T08:12:39.477Z,30.77
2018-11-29T08:15:09.321Z,30.77
2018-11-29T08:17:37.502Z,28.93
2018-11-29T08:20:10.156Z,36.27
2018-11-29T08:22:38.349Z,30.00
2018-11-29T08:25:06.799Z,30.70
2018-11-29T08:27:34.962Z,36.23
2018-11-29T08:30:03.959Z,35.00
2018-11-29T08:32:32.150Z,31.57
2018-11-29T08:35:00.297Z,30.07
2018-11-29T08:37:28.477Z,29.90
2018-11-29T08:39:56.620Z,29.07
2018-11-29T08:42:24.773Z,33.27
2018-11-29T08:44:52.985Z,34.40
2018-11-29T08:47:21.124Z,31.90
2018-11-29T08:49:50.032Z,30.90
2018-11-29T08:52:18.370Z,30.83
2018-11-29T08:54:46.757Z,33.77
2018-11-29T08:57:15.632Z,29.93
2018-11-29T08:59:43.384Z,29.73
2018-11-29T09:02:11.690Z,30.87
2018-11-29T09:04:39.989Z,31.07
2018-11-29T09:07:08.381Z,30.23
2018-11-29T09:09:36.721Z,28.80
2018-11-29T09:12:05.164Z,28.77
2018-11-29T09:14:33.314Z,27.70
2018-11-29T09:17:01.469Z,30.83
2018-11-29T09:19:29.609Z,28.57
2018-11-29T09:21:57.777Z,28.27
2018-11-29T09:24:25.897Z,30.30
2018-11-29T09:26:54.028Z,27.63
2018-11-29T09:29:22.164Z,29.23
2018-11-29T09:31:50.316Z,29.80
2018-11-29T09:34:18.461Z,30.43
2018-11-29T09:36:46.613Z,31.20
2018-11-29T09:39:14.750Z,30.23
2018-11-29T09:41:42.896Z,27.90
2018-11-29T09:44:11.016Z,29.57
2018-11-29T09:46:39.178Z,30.10
2018-11-29T09:49:07.306Z,30.40
2018-11-29T09:51:35.441Z,29.83
2018-11-29T09:54:03.558Z,29.13
2018-11-29T09:56:31.678Z,28.90
2018-11-29T09:59:00.165Z,29.47
2018-11-29T10:01:28.251Z,27.00
2018-11-29T10:03:56.637Z,28.40
2018-11-29T10:06:24.759Z,29.80
2018-11-29T10:08:52.879Z,25.80
2018-11-29T10:11:21.004Z,27.40
2018-11-29T10:13:49.144Z,28.07
2018-11-29T10:16:17.278Z,29.10
2018-11-29T10:18:45.440Z,26.60
2018-11-29T10:21:13.712Z,26.47
2018-11-29T10:23:41.849Z,26.37
2018-11-29T10:26:09.961Z,25.83
2018-11-29T10:28:38.101Z,24.60
2018-11-29T10:31:06.966Z,25.70
2018-11-29T10:33:35.169Z,23.37
2018-11-29T10:36:03.324Z,25.53
2018-11-29T10:38:31.798Z,23.57
2018-11-29T10:40:59.950Z,25.03
2018-11-29T10:43:28.099Z,27.83
2018-11-29T10:45:56.413Z,22.87
2018-11-29T10:48:24.864Z,25.13
2018-11-29T10:50:53.050Z,27.27
2018-11-29T10:53:21.212Z,27.90
2018-11-29T10:55:49.353Z,24.53
2018-11-29T10:58:17.497Z,25.33
2018-11-29T11:00:51.576Z,25.80
2018-11-29T11:03:20.729Z,27.63
2018-11-29T11:05:51.979Z,23.10
2018-11-29T11:08:20.714Z,25.97
2018-11-29T11:10:49.173Z,27.33
2018-11-29T11:13:17.342Z,22.90
2018-11-29T11:15:45.480Z,27.37
2018-11-29T11:18:14.315Z,20.37
2018-11-29T11:20:42.439Z,21.73
2018-11-29T11:23:10.904Z,23.27
2018-11-29T11:25:39.028Z,22.77
2018-11-29T11:28:08.240Z,21.60
2018-11-29T11:30:38.442Z,22.10
2018-11-29T11:33:06.779Z,21.57
2018-11-29T11:35:34.901Z,22.00
2018-11-29T11:38:03.103Z,22.27
2018-11-29T11:40:31.623Z,21.17
2018-11-29T11:42:59.759Z,22.60
2018-11-29T11:45:27.889Z,19.17
2018-11-29T11:47:56.018Z,21.67
2018-11-29T11:50:24.853Z,21.47
2018-11-29T11:52:53.864Z,23.40
2018-11-29T11:55:22.060Z,20.53
2018-11-29T11:57:50.209Z,19.03
2018-11-29T12:00:29.200Z,21.80
2018-11-29T12:03:03.021Z,21.93
2018-11-29T12:05:31.141Z,21.47
2018-11-29T12:07:59.305Z,21.57
2018-11-29T12:10:27.462Z,20.37
2018-11-29T12:12:55.613Z,20.87
2018-11-29T12:15:23.729Z,18.67
2018-11-29T12:17:51.918Z,20.97
2018-11-29T12:20:20.438Z,18.27
2018-11-29T12:22:48.607Z,20.17
2018-11-29T12:25:20.769Z,20.47
2018-11-29T12:27:49.024Z,20.17
2018-11-29T12:30:23.355Z,18.60
2018-11-29T12:32:52.453Z,18.30
2018-11-29T12:35:20.955Z,18.77
2018-11-29T12:37:49.146Z,18.30
2018-11-29T12:40:17.420Z,19.80
2018-11-29T12:42:45.581Z,17.83
2018-11-29T12:45:14.973Z,18.87
2018-11-29T12:47:43.829Z,18.77
2018-11-29T12:50:18.148Z,17.53
2018-11-29T12:52:46.621Z,18.13
2018-11-29T12:55:16.857Z,18.67
2018-11-29T12:57:45.072Z,16.83
2018-11-29T13:00:19.360Z,16.70
2018-11-29T13:02:48.893Z,18.63
2018-11-29T13:05:17.002Z,17.87
2018-11-29T13:07:45.152Z,19.93
2018-11-29T13:10:15.548Z,17.23
2018-11-29T13:12:43.977Z,17.63
2018-11-29T13:15:14.660Z,16.07
2018-11-29T13:17:42.736Z,19.50
2018-11-29T13:20:14.762Z,16.43
2018-11-29T13:22:42.881Z,16.20
2018-11-29T13:25:16.115Z,16.93
2018-11-29T13:27:44.588Z,16.57
2018-11-29T13:30:14.836Z,17.53
2018-11-29T13:32:43.382Z,15.93
2018-11-29T13:35:17.167Z,16.47
2018-11-29T13:37:47.840Z,16.97
2018-11-29T13:40:15.968Z,19.37
2018-11-29T13:42:44.105Z,15.23
2018-11-29T13:45:12.294Z,15.00
2018-11-29T13:47:41.411Z,15.03
2018-11-29T13:50:15.733Z,15.80
2018-11-29T13:52:43.949Z,16.30
2018-11-29T13:55:12.838Z,19.03
2018-11-29T13:57:41.909Z,17.10
2018-11-29T14:00:17.894Z,16.77
2018-11-29T14:02:48.185Z,16.73
2018-11-29T14:05:16.402Z,15.60
2018-11-29T14:07:45.255Z,17.50
2018-11-29T14:10:14.824Z,16.87
2018-11-29T14:12:43.522Z,16.93
2018-11-29T14:15:17.831Z,20.10
2018-11-29T14:17:46.334Z,14.83
2018-11-29T14:20:14.839Z,17.67
2018-11-29T14:22:43.425Z,18.73
2018-11-29T14:25:12.809Z,16.40
2018-11-29T14:27:41.953Z,16.20
2018-11-29T14:30:18.191Z,16.27
2018-11-29T14:32:46.614Z,15.57
2018-11-29T14:35:14.946Z,17.70
2018-11-29T14:37:43.277Z,14.93
2018-11-29T14:40:17.510Z,15.03
2018-11-29T14:42:45.818Z,16.33
2018-11-29T14:45:16.215Z,15.53
2018-11-29T14:47:44.592Z,16.17
2018-11-29T14:50:46.215Z,17.10
2018-11-29T14:53:14.485Z,14.57
2018-11-29T14:55:42.791Z,16.23
2018-11-29T14:58:13.077Z,15.57
2018-11-29T15:00:41.413Z,15.67
2018-11-29T15:03:11.091Z,14.07
2018-11-29T15:05:39.498Z,14.67
2018-11-29T15:08:08.764Z,14.80
2018-11-29T15:10:37.995Z,12.77
2018-11-29T15:13:07.773Z,14.80
2018-11-29T15:15:36.309Z,15.33
2018-11-29T15:18:04.614Z,14.17
2018-11-29T15:20:37.347Z,13.90
2018-11-29T15:23:06.275Z,12.07
2018-11-29T15:25:34.760Z,16.03
2018-11-29T15:28:02.944Z,12.20
2018-11-29T15:30:31.129Z,13.17
2018-11-29T15:32:59.252Z,13.37
2018-11-29T15:35:27.380Z,12.80
2018-11-29T15:37:55.509Z,11.90
2018-11-29T15:40:23.689Z,11.37
2018-11-29T15:42:51.855Z,10.77
2018-11-29T15:45:22.126Z,9.33
2018-11-29T15:47:50.328Z,10.93
2018-11-29T15:50:18.584Z,11.07
2018-11-29T15:52:46.751Z,10.20
2018-11-29T15:55:22.378Z,11.03
2018-11-29T15:57:52.278Z,10.53
2018-11-29T16:00:23.470Z,11.97
2018-11-29T16:02:52.193Z,9.83
2018-11-29T16:05:20.376Z,10.57
2018-11-29T16:07:48.711Z,9.37
2018-11-29T16:10:18.081Z,9.83
2018-11-29T16:12:46.192Z,10.13
2018-11-29T16:15:15.215Z,10.70
2018-11-29T16:17:44.089Z,9.70
2018-11-29T16:20:14.538Z,10.97
2018-11-29T16:22:43.058Z,11.77
2018-11-29T16:25:11.988Z,11.10
2018-11-29T16:27:40.235Z,11.97
2018-11-29T16:30:21.239Z,13.33
2018-11-29T16:32:49.448Z,10.53
2018-11-29T16:37:50.288Z,14.27
2018-11-29T16:40:18.926Z,12.77
2018-11-29T16:42:47.245Z,12.63
2018-11-29T16:45:15.568Z,14.13
2018-11-29T16:47:43.916Z,13.13
2018-11-29T16:50:13.938Z,12.90
2018-11-29T16:52:42.188Z,13.30
2018-11-29T16:55:11.115Z,13.43
2018-11-29T16:57:40.865Z,13.67
2018-11-29T17:00:11.799Z,13.50
2018-11-29T17:02:40.372Z,12.00
2018-11-29T17:05:10.238Z,12.83
2018-11-29T17:07:38.642Z,12.47
2018-11-29T17:10:09.847Z,11.93
2018-11-29T17:12:38.296Z,12.40
2018-11-29T17:15:09.390Z,13.10
2018-11-29T17:17:37.941Z,11.87
2018-11-29T17:20:09.394Z,11.60
2018-11-29T17:22:37.957Z,12.27
2018-11-29T17:25:07.667Z,12.50
2018-11-29T17:27:36.237Z,12.93
2018-11-29T17:30:05.686Z,14.07
2018-11-29T17:32:34.037Z,14.03
2018-11-29T17:35:02.604Z,14.53
2018-11-29T17:37:30.982Z,13.37
2018-11-29T17:39:59.459Z,11.90
2018-11-29T17:42:27.970Z,11.43
2018-11-29T17:44:56.264Z,14.90
2018-11-29T17:47:24.581Z,12.13
2018-11-29T17:49:53.377Z,11.10
2018-11-29T17:52:22.344Z,11.23
2018-11-29T17:54:50.103Z,11.20
2018-11-29T17:57:18.673Z,12.20
2018-11-29T17:59:47.129Z,11.10
2018-11-29T18:02:15.528Z,10.27
2018-11-29T18:04:43.960Z,12.17
2018-11-29T18:07:12.292Z,12.63
2018-11-29T18:09:40.778Z,11.17
2018-11-29T18:12:10.442Z,11.80
2018-11-29T18:14:40.295Z,10.40
2018-11-29T18:17:08.874Z,11.13
2018-11-29T18:19:37.194Z,10.03
2018-11-29T18:22:06.563Z,10.90
2018-11-29T18:24:35.729Z,11.37
2018-11-29T18:27:04.334Z,10.77
2018-11-29T18:29:32.552Z,9.43
2018-11-29T18:32:01.383Z,10.97
2018-11-29T18:34:29.629Z,11.23
2018-11-29T18:36:57.906Z,11.67
2018-11-29T18:39:26.476Z,9.57
2018-11-29T18:41:55.397Z,10.17
2018-11-29T18:44:24.184Z,11.93
2018-11-29T18:46:52.488Z,10.23
2018-11-29T18:49:21.049Z,11.00
2018-11-29T18:51:49.285Z,10.80
2018-11-29T18:54:17.545Z,11.30
2018-11-29T18:56:45.866Z,12.60
2018-11-29T18:59:14.105Z,10.07
2018-11-29T19:01:42.361Z,11.90
2018-11-29T19:04:10.681Z,11.20
2018-11-29T19:06:39.023Z,11.83
2018-11-29T19:09:08.434Z,11.13
2018-11-29T19:11:36.715Z,13.80
2018-11-29T19:14:04.989Z,11.70
2018-11-29T19:16:33.149Z,11.77
2018-11-29T19:19:01.423Z,11.27
2018-11-29T19:21:29.692Z,11.07
2018-11-29T19:23:57.976Z,12.00
2018-11-29T19:26:26.550Z,11.03
2018-11-29T19:28:54.996Z,12.03
2018-11-29T19:31:23.527Z,12.23
2018-11-29T19:33:52.046Z,11.43
2018-11-29T19:36:20.638Z,11.10
2018-11-29T19:38:50.142Z,9.67
2018-11-29T19:41:18.722Z,10.87
2018-11-29T19:43:47.234Z,10.20
2018-11-29T19:46:15.688Z,13.33
2018-11-29T19:48:44.227Z,11.10
2018-11-29T19:51:12.703Z,10.80
2018-11-29T19:53:41.082Z,11.27
2018-11-29T19:56:09.592Z,11.37
2018-11-29T19:58:38.034Z,10.80
2018-11-29T20:01:06.485Z,12.67
2018-11-29T20:03:34.906Z,13.20
2018-11-29T20:06:03.349Z,10.27
2018-11-29T20:08:31.720Z,10.43
2018-11-29T20:11:00.179Z,11.73
2018-11-29T20:13:28.577Z,10.93
2018-11-29T20:15:56.949Z,9.70
2018-11-29T20:18:25.458Z,9.77
2018-11-29T20:20:53.957Z,9.47
2018-11-29T20:23:22.322Z,9.20
2018-11-29T20:25:50.729Z,12.17
2018-11-29T20:28:19.231Z,9.27
2018-11-29T20:30:47.724Z,10.93
2018-11-29T20:33:16.268Z,10.03
2018-11-29T20:35:44.701Z,9.57
2018-11-29T20:38:13.082Z,11.03
2018-11-29T20:40:42.774Z,9.03
2018-11-29T20:43:11.331Z,11.10
2018-11-29T20:45:43.612Z,9.50
2018-11-29T20:48:15.694Z,8.50
2018-11-29T20:50:44.338Z,9.80
2018-11-29T20:53:14.599Z,9.77
2018-11-29T20:55:42.867Z,9.33
2018-11-29T20:58:11.401Z,8.53
2018-11-29T21:00:39.654Z,10.70
2018-11-29T21:03:08.466Z,10.30
2018-11-29T21:05:38.398Z,8.73
2018-11-29T21:08:07.574Z,10.10
2018-11-29T21:10:35.855Z,11.60
2018-11-29T21:13:07.873Z,9.27
2018-11-29T21:15:38.357Z,9.70
2018-11-29T21:18:08.146Z,10.03
2018-11-29T21:20:36.725Z,11.47
2018-11-29T21:23:05.912Z,10.90
2018-11-29T21:25:34.112Z,10.03
2018-11-29T21:28:02.315Z,11.90
2018-11-29T21:30:30.557Z,12.63
2018-11-29T21:32:58.678Z,12.23
2018-11-29T21:35:26.898Z,11.40
2018-11-29T21:37:55.069Z,13.20
2018-11-29T21:40:26.379Z,12.20
2018-11-29T21:42:54.589Z,10.50
2018-11-29T21:45:22.766Z,10.20
2018-11-29T21:47:50.982Z,9.97
2018-11-29T21:50:19.398Z,11.47
2018-11-29T21:52:47.530Z,10.90
2018-11-29T21:55:15.969Z,11.00
2018-11-29T21:57:44.195Z,10.77
2018-11-29T22:00:15.404Z,11.00
2018-11-29T22:02:46.829Z,11.30
2018-11-29T22:05:14.997Z,11.17
2018-11-29T22:07:43.266Z,10.83
2018-11-29T22:10:11.477Z,12.10
2018-11-29T22:12:39.721Z,10.47
2018-11-29T22:15:09.441Z,12.80
2018-11-29T22:17:53.722Z,11.30
2018-11-29T22:20:21.949Z,10.27
2018-11-29T22:22:50.149Z,13.53
2018-11-29T22:25:18.295Z,10.17
2018-11-29T22:27:46.484Z,12.00
2018-11-29T22:30:14.659Z,10.73
2018-11-29T22:32:42.826Z,9.63
2018-11-29T22:35:10.981Z,10.90
2018-11-29T22:37:39.450Z,10.40
2018-11-29T22:40:07.996Z,11.70
2018-11-29T22:42:36.243Z,11.37
2018-11-29T22:45:04.893Z,9.00
2018-11-29T22:47:33.086Z,11.37
2018-11-29T22:50:01.684Z,12.87
2018-11-29T22:52:29.809Z,10.67
2018-11-29T22:54:57.929Z,11.10
2018-11-29T22:57:26.069Z,10.63
2018-11-29T22:59:54.189Z,10.40
2018-11-29T23:02:22.327Z,9.03
2018-11-29T23:04:50.710Z,10.57
2018-11-29T23:07:18.873Z,8.93
2018-11-29T23:09:47.017Z,11.80
2018-11-29T23:12:15.489Z,10.50
2018-11-29T23:14:43.619Z,9.03
2018-11-29T23:17:11.896Z,11.27
2018-11-29T23:19:40.040Z,10.13
2018-11-29T23:22:08.442Z,10.20
2018-11-29T23:24:36.559Z,9.33
2018-11-29T23:27:05.006Z,11.63
2018-11-29T23:29:33.146Z,10.63
2018-11-29T23:32:01.585Z,9.17
2018-11-29T23:34:29.713Z,9.87
2018-11-29T23:36:58.224Z,9.90
2018-11-29T23:39:26.401Z,9.30
2018-11-29T23:41:54.561Z,13.37
2018-11-29T23:44:22.689Z,7.83
2018-11-29T23:46:50.829Z,9.60
2018-11-29T23:49:18.977Z,10.50
2018-11-29T23:51:47.381Z,10.13
2018-11-29T23:54:15.525Z,10.17
2018-11-29T23:56:43.672Z,10.00
2018-11-29T23:59:12.101Z,9.97
